Terminal Aerodrome Forecast
Issued by NWS

Home | Current Version | Previous Version | Text Only | Print | Product List | Glossary On
Versions: 1 2 3 4 5 6 7 8 9 10 11 12 13 14 15 16 17 18
000
FTUS42 KGSP 302320
TAFHKY
TAF
KHKY 302320Z 3100/3124 21006KT P6SM -RA SCT080 BKN110
     FM310200 21003KT P6SM SCT060
     FM310900 VRB03KT 2SM BR SCT060
     FM311300 22003KT P6SM FEW060
     FM311800 22008G17KT P6SM BKN060 PROB30 3118/3124 4SM -TSRA
      OVC040CB=

USA.gov is the U.S. government's official web portal to all federal, state and local government web resources and services.